createdAt,value
2022-08-04T00:01:44.440Z,20.80
2022-08-04T00:03:55.982Z,20.70
2022-08-04T00:06:06.227Z,20.60
2022-08-04T00:08:20.315Z,20.60
2022-08-04T00:10:26.027Z,20.60
2022-08-04T00:12:36.594Z,20.60
2022-08-04T00:14:50.662Z,20.70
2022-08-04T00:16:55.658Z,20.70
2022-08-04T00:19:06.965Z,20.60
2022-08-04T00:21:16.064Z,20.60
2022-08-04T00:23:21.852Z,20.50
2022-08-04T00:25:27.879Z,20.40
2022-08-04T00:27:36.227Z,20.20
2022-08-04T00:29:42.129Z,20.20
2022-08-04T00:31:56.085Z,20.10
2022-08-04T00:34:05.422Z,20.10
2022-08-04T00:36:10.862Z,20.00
2022-08-04T00:38:17.074Z,20.10
2022-08-04T00:40:35.997Z,20.10
2022-08-04T00:42:58.403Z,20.00
2022-08-04T00:45:25.160Z,20.00
2022-08-04T00:47:45.595Z,19.90
2022-08-04T00:50:11.725Z,19.90
2022-08-04T00:52:32.455Z,19.90
2022-08-04T00:54:49.888Z,19.90
2022-08-04T00:57:30.142Z,19.70
2022-08-04T00:59:57.288Z,19.70
2022-08-04T01:02:04.802Z,19.60
2022-08-04T01:04:15.831Z,19.50
2022-08-04T01:06:39.830Z,19.60
2022-08-04T01:08:56.745Z,19.70
2022-08-04T01:11:07.093Z,19.80
2022-08-04T01:13:32.652Z,19.70
2022-08-04T01:15:59.482Z,19.60
2022-08-04T01:18:09.090Z,19.60
2022-08-04T01:20:17.180Z,19.60
2022-08-04T01:22:41.130Z,19.60
2022-08-04T01:25:00.033Z,19.20
2022-08-04T01:27:09.555Z,18.90
2022-08-04T01:29:18.159Z,19.10
2022-08-04T01:31:32.627Z,19.10
2022-08-04T01:34:03.285Z,19.20
2022-08-04T01:36:08.997Z,19.10
2022-08-04T01:38:21.802Z,19.10
2022-08-04T01:40:29.925Z,19.00
2022-08-04T01:42:36.247Z,19.10
2022-08-04T01:44:44.886Z,19.00
2022-08-04T01:46:53.743Z,19.00
2022-08-04T01:48:59.036Z,19.20
2022-08-04T01:51:07.913Z,19.20
2022-08-04T01:53:13.416Z,19.10
2022-08-04T01:55:19.495Z,19.10
2022-08-04T01:57:38.732Z,18.90
2022-08-04T01:59:48.415Z,18.80
2022-08-04T02:01:53.709Z,18.70
2022-08-04T02:04:20.078Z,18.50
2022-08-04T02:06:35.075Z,18.60
2022-08-04T02:08:49.156Z,18.70
2022-08-04T02:11:00.933Z,18.70
2022-08-04T02:13:14.496Z,18.80
2022-08-04T02:15:30.198Z,18.80
2022-08-04T02:17:38.703Z,18.80
2022-08-04T02:20:10.129Z,18.70
2022-08-04T02:22:20.280Z,18.70
2022-08-04T02:24:29.987Z,18.50
2022-08-04T02:26:37.492Z,18.40
2022-08-04T02:28:49.958Z,18.40
2022-08-04T02:31:05.996Z,18.60
2022-08-04T02:33:11.916Z,18.60
2022-08-04T02:35:19.847Z,18.60
2022-08-04T02:37:26.103Z,18.60
2022-08-04T02:39:48.515Z,18.40
2022-08-04T02:41:56.781Z,18.20
2022-08-04T02:44:02.913Z,18.00
2022-08-04T02:46:18.200Z,18.10
2022-08-04T02:48:31.113Z,18.20
2022-08-04T02:50:38.346Z,17.80
2022-08-04T02:52:44.744Z,17.70
2022-08-04T02:54:51.200Z,17.70
2022-08-04T02:56:56.749Z,17.80
2022-08-04T02:59:03.170Z,17.90
2022-08-04T03:01:10.968Z,17.90
2022-08-04T03:03:21.749Z,18.10
2022-08-04T03:05:57.493Z,18.10
2022-08-04T03:08:32.498Z,18.10
2022-08-04T03:11:06.726Z,18.10
2022-08-04T03:14:05.190Z,18.10
2022-08-04T03:16:39.297Z,18.10
2022-08-04T03:19:15.296Z,18.10
2022-08-04T03:21:50.320Z,18.00
2022-08-04T03:24:10.511Z,17.80
2022-08-04T03:26:55.622Z,17.80
2022-08-04T03:29:13.634Z,17.70
2022-08-04T03:32:04.108Z,17.60
2022-08-04T03:34:20.985Z,17.70
2022-08-04T03:36:50.143Z,17.70
2022-08-04T03:39:25.891Z,17.70
2022-08-04T03:41:54.894Z,17.70
2022-08-04T03:44:24.984Z,17.70
2022-08-04T03:46:47.243Z,17.70
2022-08-04T03:49:20.722Z,17.60
2022-08-04T03:51:48.339Z,17.30
2022-08-04T03:54:11.826Z,17.20
2022-08-04T03:56:36.227Z,17.20
2022-08-04T03:59:07.236Z,17.50
2022-08-04T04:01:21.892Z,17.70
2022-08-04T04:04:01.522Z,17.70
2022-08-04T04:06:30.640Z,17.60
2022-08-04T04:09:03.656Z,17.50
2022-08-04T04:11:56.379Z,17.40
2022-08-04T04:14:35.397Z,17.30
2022-08-04T04:17:07.145Z,17.10
2022-08-04T04:19:37.762Z,17.20
2022-08-04T04:22:05.051Z,17.30
2022-08-04T04:24:25.341Z,17.50
2022-08-04T04:26:54.226Z,17.60
2022-08-04T04:29:09.485Z,17.70
2022-08-04T04:31:31.124Z,17.60
2022-08-04T04:33:45.129Z,17.60
2022-08-04T04:35:57.945Z,17.60
2022-08-04T04:38:37.821Z,17.70
2022-08-04T04:40:49.720Z,17.80
2022-08-04T04:43:17.842Z,17.90
2022-08-04T04:45:27.771Z,17.70
2022-08-04T04:48:07.508Z,17.60
2022-08-04T04:50:12.880Z,17.50
2022-08-04T04:52:24.842Z,17.60
2022-08-04T04:54:37.364Z,17.60
2022-08-04T04:56:49.224Z,17.50
2022-08-04T04:58:56.656Z,17.60
2022-08-04T05:01:26.531Z,17.70
2022-08-04T05:03:47.230Z,18.00
2022-08-04T05:06:24.402Z,18.00
2022-08-04T05:08:44.849Z,17.90
2022-08-04T05:11:05.237Z,17.90
2022-08-04T05:14:38.495Z,17.80
2022-08-04T05:15:48.429Z,17.90
2022-08-04T05:17:55.904Z,17.80
2022-08-04T05:20:05.108Z,17.80
2022-08-04T05:22:14.742Z,18.00
2022-08-04T05:24:22.246Z,18.00
2022-08-04T05:26:34.426Z,18.00
2022-08-04T05:28:42.848Z,18.20
2022-08-04T05:30:51.907Z,18.40
2022-08-04T05:33:00.973Z,18.50
2022-08-04T05:35:08.378Z,18.60
2022-08-04T05:37:19.807Z,18.70
2022-08-04T05:39:31.139Z,18.80
2022-08-04T05:41:45.424Z,18.80
2022-08-04T05:43:53.082Z,18.90
2022-08-04T05:45:58.658Z,18.90
2022-08-04T05:48:04.581Z,19.00
2022-08-04T05:50:11.861Z,19.10
2022-08-04T05:52:17.813Z,19.00
2022-08-04T05:54:23.736Z,19.00
2022-08-04T05:56:29.262Z,19.10
2022-08-04T05:58:38.254Z,19.10
2022-08-04T06:00:52.333Z,19.10
2022-08-04T06:02:57.708Z,19.10
2022-08-04T06:05:05.649Z,19.10
2022-08-04T06:07:11.629Z,19.20
2022-08-04T06:09:16.541Z,19.30
2022-08-04T06:11:22.452Z,19.40
2022-08-04T06:13:47.642Z,19.40
2022-08-04T06:15:59.542Z,19.60
2022-08-04T06:18:42.201Z,19.60
2022-08-04T06:20:37.282Z,19.70
2022-08-04T06:22:44.753Z,19.80
2022-08-04T06:24:52.208Z,19.80
2022-08-04T06:26:58.262Z,19.90
2022-08-04T06:29:04.837Z,19.90
2022-08-04T06:32:31.058Z,20.00
2022-08-04T06:33:54.813Z,20.10
2022-08-04T06:36:00.935Z,20.20
2022-08-04T06:38:06.433Z,20.30
2022-08-04T06:40:31.992Z,20.30
2022-08-04T06:42:38.049Z,20.40
2022-08-04T06:44:43.853Z,20.50
2022-08-04T06:46:51.484Z,20.60
2022-08-04T06:48:57.516Z,20.70
2022-08-04T06:51:25.044Z,20.70
2022-08-04T06:53:28.485Z,20.80
2022-08-04T06:55:34.648Z,20.90
2022-08-04T06:57:40.122Z,20.90
2022-08-04T06:59:48.113Z,21.00
2022-08-04T07:01:56.237Z,21.20
2022-08-04T07:04:02.106Z,21.30
2022-08-04T07:06:14.183Z,21.40
2022-08-04T07:08:20.100Z,21.40
2022-08-04T07:10:26.232Z,21.50
2022-08-04T07:12:31.999Z,21.60
2022-08-04T07:14:37.314Z,21.70
2022-08-04T07:16:43.982Z,21.80
2022-08-04T07:18:51.676Z,21.80
2022-08-04T07:20:56.312Z,21.90
2022-08-04T07:23:02.111Z,22.00
2022-08-04T07:25:13.526Z,22.10
2022-08-04T07:27:48.704Z,22.10
2022-08-04T07:29:45.587Z,22.20
2022-08-04T07:31:50.441Z,22.30
2022-08-04T07:34:20.952Z,22.30
2022-08-04T07:36:24.276Z,22.40
2022-08-04T07:38:37.626Z,22.60
2022-08-04T07:40:51.678Z,22.60
2022-08-04T07:42:57.148Z,22.70
2022-08-04T07:45:02.405Z,22.80
2022-08-04T07:47:11.126Z,22.80
2022-08-04T07:49:55.525Z,22.90
2022-08-04T07:51:43.843Z,22.90
2022-08-04T07:53:54.521Z,23.00
2022-08-04T07:56:01.628Z,23.10
2022-08-04T07:58:06.472Z,23.10
2022-08-04T08:00:14.520Z,23.10
2022-08-04T08:02:22.042Z,23.30
2022-08-04T08:04:29.483Z,23.50
2022-08-04T08:06:38.600Z,23.60
2022-08-04T08:08:46.322Z,23.80
2022-08-04T08:10:52.520Z,23.90
2022-08-04T08:12:58.209Z,24.00
2022-08-04T08:15:03.310Z,24.10
2022-08-04T08:17:08.521Z,24.20
2022-08-04T08:19:14.760Z,24.30
2022-08-04T08:21:25.594Z,24.50
2022-08-04T08:23:33.908Z,24.60
2022-08-04T08:25:39.071Z,24.60
2022-08-04T08:27:56.079Z,25.00
2022-08-04T08:30:02.005Z,25.10
2022-08-04T08:32:09.034Z,25.20
2022-08-04T08:34:14.621Z,25.40
2022-08-04T08:36:38.971Z,25.60
2022-08-04T08:38:49.683Z,25.90
2022-08-04T08:40:58.804Z,26.00
2022-08-04T08:44:04.747Z,26.00
2022-08-04T08:45:58.094Z,25.90
2022-08-04T08:48:14.601Z,26.00
2022-08-04T08:50:59.781Z,26.30
2022-08-04T08:53:39.016Z,26.40
2022-08-04T08:55:52.369Z,26.90
2022-08-04T08:58:13.457Z,27.30
2022-08-04T09:00:23.117Z,27.40
2022-08-04T09:03:04.568Z,27.50
2022-08-04T09:05:27.478Z,27.50
2022-08-04T09:07:54.514Z,27.30
2022-08-04T09:10:12.702Z,27.30
2022-08-04T09:12:25.869Z,27.70
2022-08-04T09:14:36.331Z,27.80
2022-08-04T09:16:45.832Z,28.10
2022-08-04T09:18:57.070Z,28.30
2022-08-04T09:21:05.317Z,28.00
2022-08-04T09:23:21.696Z,28.00
2022-08-04T09:25:34.368Z,28.20
2022-08-04T09:27:47.360Z,28.30
2022-08-04T09:29:59.088Z,28.40
2022-08-04T09:32:09.701Z,28.50
2022-08-04T09:34:18.874Z,28.60
2022-08-04T09:36:31.489Z,28.80
2022-08-04T09:38:42.119Z,28.80
2022-08-04T09:41:00.079Z,29.10
2022-08-04T09:43:12.368Z,29.00
2022-08-04T09:45:26.947Z,29.10
2022-08-04T09:47:52.595Z,29.40
2022-08-04T09:50:01.823Z,30.00
2022-08-04T09:52:12.839Z,29.80
2022-08-04T09:54:31.036Z,29.70
2022-08-04T09:56:42.663Z,29.80
2022-08-04T09:58:55.396Z,29.60
2022-08-04T10:01:04.165Z,29.50
2022-08-04T10:03:09.141Z,29.90
2022-08-04T10:05:18.049Z,30.00
2022-08-04T10:07:42.973Z,30.00
2022-08-04T10:10:14.084Z,30.00
2022-08-04T10:12:30.227Z,30.10
2022-08-04T10:14:47.843Z,30.40
2022-08-04T10:17:00.034Z,30.50
2022-08-04T10:19:15.998Z,30.50
2022-08-04T10:21:32.153Z,30.60
2022-08-04T10:23:56.457Z,30.40
2022-08-04T10:26:18.485Z,30.20
2022-08-04T10:28:26.661Z,30.60
2022-08-04T10:30:33.228Z,30.40
2022-08-04T10:32:47.861Z,30.60
2022-08-04T10:35:03.160Z,30.60
2022-08-04T10:37:13.822Z,30.60
2022-08-04T10:39:42.709Z,30.80
2022-08-04T10:41:55.664Z,31.00
2022-08-04T10:44:19.022Z,30.90
2022-08-04T10:46:28.809Z,30.70
2022-08-04T10:48:45.793Z,30.90
2022-08-04T10:51:03.124Z,31.20
2022-08-04T10:53:12.954Z,31.10
2022-08-04T10:55:23.749Z,31.30
2022-08-04T10:57:51.134Z,31.40
2022-08-04T11:00:03.859Z,31.70
2022-08-04T11:02:19.351Z,31.60
2022-08-04T11:04:29.256Z,31.50
2022-08-04T11:06:34.695Z,31.50
2022-08-04T11:08:41.792Z,31.50
2022-08-04T11:10:52.089Z,31.60
2022-08-04T11:13:01.920Z,31.80
2022-08-04T11:15:14.328Z,31.80
2022-08-04T11:17:24.291Z,31.90
2022-08-04T11:19:42.782Z,32.20
2022-08-04T11:21:58.605Z,32.10
2022-08-04T11:24:11.948Z,32.10
2022-08-04T11:26:21.100Z,32.10
2022-08-04T11:28:35.965Z,32.10
2022-08-04T11:30:47.757Z,32.40
2022-08-04T11:32:59.501Z,32.20
2022-08-04T11:35:08.210Z,32.30
2022-08-04T11:37:16.706Z,32.50
2022-08-04T11:39:27.746Z,32.50
2022-08-04T11:41:41.119Z,32.40
2022-08-04T11:43:56.218Z,32.40
2022-08-04T11:46:17.076Z,32.40
2022-08-04T11:48:28.494Z,32.50
2022-08-04T11:50:38.323Z,32.60
2022-08-04T11:52:46.206Z,32.70
2022-08-04T11:54:54.674Z,32.80
2022-08-04T11:56:59.890Z,32.90
2022-08-04T11:59:06.003Z,32.90
2022-08-04T12:01:19.981Z,33.10
2022-08-04T12:03:37.583Z,33.20
2022-08-04T12:05:50.032Z,33.30
2022-08-04T12:08:02.908Z,33.20
2022-08-04T12:10:15.398Z,33.10
2022-08-04T12:12:25.980Z,33.30
2022-08-04T12:14:47.342Z,33.40
2022-08-04T12:17:01.816Z,33.70
2022-08-04T12:19:16.468Z,33.70
2022-08-04T12:21:27.762Z,34.00
2022-08-04T12:23:36.755Z,34.10
2022-08-04T12:25:45.225Z,34.30
2022-08-04T12:27:53.065Z,34.40
2022-08-04T12:31:00.601Z,34.60
2022-08-04T12:32:28.733Z,35.00
2022-08-04T12:34:37.936Z,35.40
2022-08-04T12:36:48.304Z,35.90
2022-08-04T12:38:58.117Z,36.40
2022-08-04T12:41:05.659Z,35.80
2022-08-04T12:43:15.018Z,35.30
2022-08-04T12:45:21.110Z,35.70
2022-08-04T12:47:30.605Z,36.00
2022-08-04T12:49:38.158Z,36.20
2022-08-04T12:52:08.135Z,36.50
2022-08-04T12:54:12.935Z,36.50
2022-08-04T12:56:17.871Z,36.70
2022-08-04T12:58:42.172Z,36.40
2022-08-04T13:00:56.290Z,36.80
2022-08-04T13:03:10.488Z,37.70
2022-08-04T13:05:19.067Z,37.80
2022-08-04T13:07:27.342Z,37.50
2022-08-04T13:09:35.650Z,37.90
2022-08-04T13:11:43.896Z,38.20
2022-08-04T13:14:00.597Z,38.40
2022-08-04T13:16:14.728Z,38.40
2022-08-04T13:18:26.166Z,38.60
2022-08-04T13:20:35.819Z,37.90
2022-08-04T13:22:46.398Z,38.80
2022-08-04T13:24:57.036Z,38.70
2022-08-04T13:27:20.406Z,39.30
2022-08-04T13:29:59.400Z,39.20
2022-08-04T13:31:53.436Z,39.50
2022-08-04T13:34:08.390Z,40.60
2022-08-04T13:36:28.880Z,41.10
2022-08-04T13:38:34.830Z,41.30
2022-08-04T13:40:39.954Z,40.00
2022-08-04T13:42:50.405Z,39.60
2022-08-04T13:44:58.424Z,39.90
2022-08-04T13:47:10.181Z,39.60
2022-08-04T13:49:42.964Z,39.80
2022-08-04T13:51:57.396Z,40.20
2022-08-04T13:54:03.979Z,40.90
2022-08-04T13:56:10.931Z,41.80
2022-08-04T13:58:22.732Z,42.00
2022-08-04T14:00:30.807Z,40.90
2022-08-04T14:02:41.386Z,39.80
2022-08-04T14:04:57.336Z,39.50
2022-08-04T14:07:17.732Z,40.10
2022-08-04T14:09:35.196Z,42.00
2022-08-04T14:12:06.121Z,43.30
2022-08-04T14:14:17.173Z,41.90
2022-08-04T14:16:23.538Z,41.70
2022-08-04T14:18:30.125Z,44.30
2022-08-04T14:20:37.714Z,44.30
2022-08-04T14:22:46.364Z,43.90
2022-08-04T14:24:58.862Z,43.10
2022-08-04T14:27:03.850Z,43.40
2022-08-04T14:29:27.845Z,43.20
2022-08-04T14:31:33.859Z,43.40
2022-08-04T14:34:00.503Z,44.90
2022-08-04T14:36:13.584Z,47.50
2022-08-04T14:38:20.993Z,50.20
2022-08-04T14:40:30.483Z,51.00
2022-08-04T14:42:54.771Z,50.70
2022-08-04T14:45:03.088Z,48.90
2022-08-04T14:47:13.381Z,48.60
2022-08-04T14:49:18.961Z,49.30
2022-08-04T14:51:36.215Z,48.70
2022-08-04T14:53:42.317Z,46.20
2022-08-04T14:55:48.890Z,46.50
2022-08-04T14:58:36.285Z,47.90
2022-08-04T15:00:29.471Z,46.70
2022-08-04T15:02:36.213Z,44.80
2022-08-04T15:04:42.210Z,44.60
2022-08-04T15:06:49.637Z,45.90
2022-08-04T15:08:57.399Z,47.50
2022-08-04T15:11:03.554Z,47.10
2022-08-04T15:13:12.501Z,48.20
2022-08-04T15:15:36.114Z,48.60
2022-08-04T15:17:43.040Z,48.20
2022-08-04T15:19:55.425Z,47.70
2022-08-04T15:22:04.117Z,47.00
2022-08-04T15:24:09.874Z,45.90
2022-08-04T15:26:18.932Z,44.50
2022-08-04T15:28:25.784Z,43.60
2022-08-04T15:30:31.740Z,43.10
2022-08-04T15:32:38.970Z,42.70
2022-08-04T15:34:48.500Z,42.50
2022-08-04T15:36:57.873Z,41.90
2022-08-04T15:39:10.998Z,42.20
2022-08-04T15:41:22.141Z,42.60
2022-08-04T15:43:42.876Z,41.80
2022-08-04T15:46:37.344Z,42.10
2022-08-04T15:48:35.624Z,41.60
2022-08-04T15:51:15.274Z,41.30
2022-08-04T15:53:23.103Z,41.60
2022-08-04T15:55:37.325Z,40.90
2022-08-04T15:58:00.687Z,41.30
2022-08-04T16:00:14.287Z,41.70
2022-08-04T16:02:39.470Z,42.10
2022-08-04T16:04:44.404Z,41.80
2022-08-04T16:06:49.296Z,42.00
2022-08-04T16:09:04.353Z,42.40
2022-08-04T16:11:43.326Z,42.00
2022-08-04T16:14:12.603Z,42.00
2022-08-04T16:16:30.536Z,41.70
2022-08-04T16:18:44.175Z,41.50
2022-08-04T16:20:52.050Z,41.10
2022-08-04T16:23:01.439Z,41.00
2022-08-04T16:25:06.640Z,41.10
2022-08-04T16:27:17.512Z,41.10
2022-08-04T16:29:39.452Z,41.00
2022-08-04T16:31:46.569Z,40.50
2022-08-04T16:34:04.878Z,40.50
2022-08-04T16:36:16.792Z,40.60
2022-08-04T16:38:22.878Z,40.60
2022-08-04T16:40:41.147Z,40.80
2022-08-04T16:42:48.698Z,40.50
2022-08-04T16:45:02.952Z,40.60
2022-08-04T16:47:22.002Z,40.10
2022-08-04T16:49:28.354Z,40.20
2022-08-04T16:51:34.792Z,40.50
2022-08-04T16:53:59.177Z,40.40
2022-08-04T16:56:05.336Z,40.40
2022-08-04T16:58:12.897Z,41.50
2022-08-04T17:00:18.773Z,43.70
2022-08-04T17:02:26.928Z,44.70
2022-08-04T17:04:32.438Z,43.10
2022-08-04T17:06:39.397Z,40.60
2022-08-04T17:08:44.685Z,41.80
2022-08-04T17:10:51.030Z,41.90
2022-08-04T17:13:08.513Z,40.20
2022-08-04T17:15:27.657Z,39.40
2022-08-04T17:18:05.862Z,38.60
2022-08-04T17:19:57.945Z,38.40
2022-08-04T17:22:07.350Z,37.90
2022-08-04T17:24:18.025Z,37.80
2022-08-04T17:26:24.890Z,38.00
2022-08-04T17:28:50.196Z,38.50
2022-08-04T17:30:59.344Z,39.20
2022-08-04T17:33:08.194Z,38.80
2022-08-04T17:35:20.077Z,38.00
2022-08-04T17:37:39.119Z,37.40
2022-08-04T17:39:47.907Z,37.10
2022-08-04T17:41:58.945Z,36.80
2022-08-04T17:44:07.386Z,36.40
2022-08-04T17:46:29.142Z,36.20
2022-08-04T17:48:35.202Z,35.50
2022-08-04T17:50:43.495Z,35.50
2022-08-04T17:53:01.604Z,35.50
2022-08-04T17:55:16.389Z,35.50
2022-08-04T17:57:24.648Z,35.50
2022-08-04T18:02:05.740Z,37.00
2022-08-04T18:04:27.985Z,37.60
2022-08-04T18:06:33.478Z,37.30
2022-08-04T18:08:49.833Z,37.10
2022-08-04T18:10:56.800Z,37.30
2022-08-04T18:13:14.080Z,37.10
2022-08-04T18:15:25.577Z,36.50
2022-08-04T18:18:21.698Z,35.60
2022-08-04T18:20:18.943Z,35.00
2022-08-04T18:22:28.799Z,34.60
2022-08-04T18:24:56.476Z,34.40
2022-08-04T18:26:59.889Z,33.90
2022-08-04T18:29:05.123Z,33.10
2022-08-04T18:31:09.997Z,33.00
2022-08-04T18:33:40.206Z,32.80
2022-08-04T18:36:34.312Z,32.80
2022-08-04T18:38:22.122Z,32.80
2022-08-04T18:40:34.252Z,32.50
2022-08-04T18:42:43.990Z,32.20
2022-08-04T18:44:52.067Z,32.00
2022-08-04T18:47:19.609Z,31.90
2022-08-04T18:50:32.684Z,31.80
2022-08-04T18:51:51.026Z,31.60
2022-08-04T18:53:58.863Z,31.30
2022-08-04T18:56:04.283Z,31.20
2022-08-04T18:58:12.730Z,30.80
2022-08-04T19:00:20.951Z,30.80
2022-08-04T19:02:26.594Z,30.50
2022-08-04T19:04:37.007Z,30.30
2022-08-04T19:06:42.927Z,30.00
2022-08-04T19:08:49.714Z,29.90
2022-08-04T19:10:59.620Z,30.00
2022-08-04T19:13:06.062Z,30.10
2022-08-04T19:15:34.015Z,29.90
2022-08-04T19:17:57.125Z,29.80
2022-08-04T19:20:05.182Z,29.80
2022-08-04T19:22:12.110Z,29.70
2022-08-04T19:24:37.068Z,29.50
2022-08-04T19:26:49.107Z,29.40
2022-08-04T19:28:55.608Z,29.30
2022-08-04T19:31:01.175Z,29.30
2022-08-04T19:33:06.462Z,29.20
2022-08-04T19:35:13.969Z,29.20
2022-08-04T19:38:01.467Z,28.90
2022-08-04T19:39:44.076Z,28.50
2022-08-04T19:42:04.423Z,28.10
2022-08-04T19:44:11.285Z,27.80
2022-08-04T19:46:17.689Z,28.00
2022-08-04T19:48:25.349Z,27.90
2022-08-04T19:50:35.204Z,27.90
2022-08-04T19:52:40.057Z,28.00
2022-08-04T19:54:56.761Z,27.80
2022-08-04T19:57:01.886Z,27.80
2022-08-04T19:59:07.026Z,27.80
2022-08-04T20:01:31.302Z,27.60
2022-08-04T20:04:09.720Z,27.40
2022-08-04T20:06:04.825Z,27.30
2022-08-04T20:08:13.288Z,27.30
2022-08-04T20:12:45.779Z,27.30
2022-08-04T20:15:01.061Z,26.90
2022-08-04T20:17:10.412Z,27.10
2022-08-04T20:19:15.670Z,27.30
2022-08-04T20:21:24.430Z,27.40
2022-08-04T20:23:48.863Z,27.30
2022-08-04T20:25:54.920Z,27.40
2022-08-04T20:28:01.359Z,27.40
2022-08-04T20:30:15.925Z,27.40
2022-08-04T20:32:25.558Z,27.30
2022-08-04T20:34:30.660Z,26.80
2022-08-04T20:36:41.168Z,26.70
2022-08-04T20:38:56.398Z,26.90
2022-08-04T20:41:02.059Z,27.00
2022-08-04T20:43:07.443Z,26.90
2022-08-04T20:45:16.395Z,27.00
2022-08-04T20:47:22.329Z,26.90
2022-08-04T20:49:34.825Z,26.90
2022-08-04T20:51:46.299Z,27.00
2022-08-04T20:53:55.504Z,27.00
2022-08-04T20:56:00.620Z,27.00
2022-08-04T20:58:06.079Z,26.80
2022-08-04T21:00:17.761Z,26.80
2022-08-04T21:02:34.649Z,26.80
2022-08-04T21:04:48.475Z,26.70
2022-08-04T21:06:56.300Z,26.80
2022-08-04T21:09:15.397Z,26.70
2022-08-04T21:11:20.517Z,26.70
2022-08-04T21:13:44.462Z,26.70
2022-08-04T21:15:59.279Z,26.60
2022-08-04T21:18:06.076Z,26.70
2022-08-04T21:20:13.744Z,26.70
